createdAt,value
2023-03-27T00:00:01.878Z,64.50
2023-03-27T00:01:04.447Z,64.41
2023-03-27T00:02:07.621Z,64.39
2023-03-27T00:03:11.343Z,64.47
2023-03-27T00:04:17.900Z,64.50
2023-03-27T00:05:21.426Z,64.50
2023-03-27T00:06:25.524Z,64.49
2023-03-27T00:07:28.171Z,64.52
2023-03-27T00:08:31.805Z,64.65
2023-03-27T00:09:34.080Z,64.57
2023-03-27T00:10:38.578Z,64.59
2023-03-27T00:11:41.467Z,64.64
2023-03-27T00:12:47.362Z,64.63
2023-03-27T00:13:51.464Z,64.84
2023-03-27T00:14:54.081Z,64.74
2023-03-27T00:15:58.223Z,64.60
2023-03-27T00:17:00.587Z,64.70
2023-03-27T00:18:04.629Z,64.68
2023-03-27T00:19:06.912Z,64.71
2023-03-27T00:20:09.649Z,64.72
2023-03-27T00:21:12.026Z,64.69
2023-03-27T00:22:14.276Z,64.61
2023-03-27T00:23:16.634Z,64.65
2023-03-27T00:24:19.112Z,64.69
2023-03-27T00:25:27.322Z,64.81
2023-03-27T00:26:30.819Z,64.85
2023-03-27T00:27:33.112Z,64.79
2023-03-27T00:28:35.976Z,64.78
2023-03-27T00:29:40.026Z,64.94
2023-03-27T00:30:43.884Z,65.10
2023-03-27T00:31:46.539Z,65.09
2023-03-27T00:32:50.829Z,65.16
2023-03-27T00:33:53.162Z,65.15
2023-03-27T00:34:55.457Z,65.17
2023-03-27T00:35:57.837Z,65.25
2023-03-27T00:37:00.195Z,65.33
2023-03-27T00:38:05.077Z,65.27
2023-03-27T00:39:07.437Z,65.25
2023-03-27T00:40:19.216Z,65.39
2023-03-27T00:41:22.542Z,65.42
2023-03-27T00:42:26.605Z,65.19
2023-03-27T00:43:30.814Z,64.17
2023-03-27T00:44:34.639Z,63.35
2023-03-27T00:45:39.429Z,62.54
2023-03-27T00:46:45.093Z,62.11
2023-03-27T00:47:54.761Z,61.63
2023-03-27T00:49:00.104Z,61.31
2023-03-27T00:50:08.992Z,61.07
2023-03-27T00:51:11.397Z,60.65
2023-03-27T00:52:17.961Z,60.58
2023-03-27T00:53:24.826Z,60.01
2023-03-27T00:54:32.836Z,59.91
2023-03-27T00:55:38.721Z,59.56
2023-03-27T00:56:41.027Z,59.72
2023-03-27T00:57:46.931Z,59.54
2023-03-27T00:58:53.156Z,59.54
2023-03-27T00:59:57.838Z,59.48
2023-03-27T01:01:00.273Z,59.35
2023-03-27T01:02:04.280Z,59.33
2023-03-27T01:03:09.101Z,59.22
2023-03-27T01:04:11.642Z,59.29
2023-03-27T01:05:14.139Z,59.27
2023-03-27T01:06:17.414Z,59.08
2023-03-27T01:07:25.248Z,59.03
2023-03-27T01:08:32.169Z,59.10
2023-03-27T01:09:34.519Z,59.24
2023-03-27T01:11:09.455Z,59.46
2023-03-27T01:12:47.398Z,59.32
2023-03-27T01:14:20.609Z,58.93
2023-03-27T01:15:37.613Z,58.77
2023-03-27T01:17:18.091Z,58.79
2023-03-27T01:18:23.038Z,58.56
2023-03-27T01:19:49.939Z,58.82
2023-03-27T01:21:02.630Z,59.06
2023-03-27T01:22:29.921Z,58.97
2023-03-27T01:24:00.409Z,58.90
2023-03-27T01:25:27.768Z,58.70
2023-03-27T01:26:48.887Z,59.00
2023-03-27T01:28:29.322Z,59.23
2023-03-27T01:29:40.435Z,59.33
2023-03-27T01:30:58.465Z,59.42
2023-03-27T01:32:13.124Z,59.41
2023-03-27T01:33:50.866Z,59.46
2023-03-27T01:35:21.979Z,59.56
2023-03-27T01:36:31.946Z,59.47
2023-03-27T01:37:57.872Z,59.65
2023-03-27T01:39:25.196Z,59.81
2023-03-27T01:40:34.311Z,59.79
2023-03-27T01:41:56.330Z,59.68
2023-03-27T01:43:07.192Z,59.65
2023-03-27T01:44:17.184Z,59.68
2023-03-27T01:45:25.530Z,59.69
2023-03-27T01:46:41.990Z,59.92
2023-03-27T01:48:02.778Z,60.04
2023-03-27T01:49:11.410Z,60.07
2023-03-27T01:50:37.262Z,60.18
2023-03-27T01:51:49.229Z,60.34
2023-03-27T01:52:58.753Z,60.44
2023-03-27T01:54:33.166Z,60.42
2023-03-27T01:55:41.381Z,60.79
2023-03-27T01:56:53.908Z,60.74
2023-03-27T01:58:07.222Z,61.16
2023-03-27T01:59:19.385Z,61.00
2023-03-27T02:00:24.620Z,60.99
2023-03-27T02:01:43.326Z,61.18
2023-03-27T02:02:52.369Z,61.41
2023-03-27T02:03:58.356Z,61.40
2023-03-27T02:05:12.815Z,61.45
2023-03-27T02:06:24.457Z,61.55
2023-03-27T02:07:35.001Z,61.63
2023-03-27T02:08:59.686Z,61.69
2023-03-27T02:10:08.517Z,61.60
2023-03-27T02:11:13.053Z,61.84
2023-03-27T02:12:21.953Z,61.69
2023-03-27T02:13:43.099Z,61.71
2023-03-27T02:15:23.982Z,61.68
2023-03-27T02:16:34.046Z,61.84
2023-03-27T02:17:43.368Z,61.61
2023-03-27T02:18:54.541Z,61.66
2023-03-27T02:20:01.099Z,61.68
2023-03-27T02:21:04.382Z,61.58
2023-03-27T02:22:08.067Z,61.55
2023-03-27T02:23:23.136Z,61.69
2023-03-27T02:24:25.541Z,61.49
2023-03-27T02:25:27.856Z,61.62
2023-03-27T02:26:30.792Z,61.67
2023-03-27T02:27:42.445Z,61.79
2023-03-27T02:29:21.989Z,61.81
2023-03-27T02:30:45.232Z,61.41
2023-03-27T02:32:25.217Z,61.38
2023-03-27T02:33:45.905Z,61.36
2023-03-27T02:34:57.262Z,61.13
2023-03-27T02:36:12.144Z,61.16
2023-03-27T02:37:32.130Z,61.26
2023-03-27T02:39:39.393Z,61.29
2023-03-27T02:40:54.920Z,61.30
2023-03-27T02:42:45.091Z,61.36
2023-03-27T02:44:04.972Z,61.47
2023-03-27T02:45:47.677Z,61.48
2023-03-27T02:47:09.852Z,61.54
2023-03-27T02:48:23.935Z,61.49
2023-03-27T02:49:33.924Z,61.56
2023-03-27T02:50:46.843Z,61.69
2023-03-27T02:51:57.964Z,61.66
2023-03-27T02:53:03.449Z,61.94
2023-03-27T02:54:12.272Z,61.88
2023-03-27T02:55:19.509Z,62.08
2023-03-27T02:56:24.762Z,61.98
2023-03-27T02:57:31.939Z,62.15
2023-03-27T02:58:58.724Z,62.26
2023-03-27T03:00:25.768Z,62.31
2023-03-27T03:01:45.552Z,62.21
2023-03-27T03:03:05.897Z,62.36
2023-03-27T03:04:18.942Z,62.36
2023-03-27T03:05:45.453Z,62.33
2023-03-27T03:06:47.876Z,62.47
2023-03-27T03:07:50.683Z,62.40
2023-03-27T03:08:53.029Z,62.57
2023-03-27T03:09:55.395Z,62.51
2023-03-27T03:11:07.969Z,62.63
2023-03-27T03:12:10.822Z,62.61
2023-03-27T03:13:17.890Z,62.66
2023-03-27T03:14:28.058Z,62.83
2023-03-27T03:15:30.898Z,62.68
2023-03-27T03:16:33.661Z,62.80
2023-03-27T03:17:39.234Z,62.92
2023-03-27T03:18:41.539Z,62.98
2023-03-27T03:19:45.114Z,62.87
2023-03-27T03:20:47.424Z,62.96
2023-03-27T03:21:51.012Z,63.21
2023-03-27T03:22:53.370Z,63.12
2023-03-27T03:23:57.957Z,63.37
2023-03-27T03:25:02.294Z,63.24
2023-03-27T03:26:06.852Z,63.42
2023-03-27T03:27:21.280Z,63.32
2023-03-27T03:28:39.028Z,63.24
2023-03-27T03:29:44.534Z,63.31
2023-03-27T03:30:59.531Z,63.45
2023-03-27T03:32:06.962Z,63.32
2023-03-27T03:33:09.834Z,63.33
2023-03-27T03:34:19.754Z,63.42
2023-03-27T03:35:23.922Z,63.41
2023-03-27T03:36:30.930Z,63.37
2023-03-27T03:37:39.003Z,63.51
2023-03-27T03:38:44.328Z,63.50
2023-03-27T03:39:49.653Z,63.49
2023-03-27T03:40:55.631Z,63.33
2023-03-27T03:41:58.318Z,63.28
2023-03-27T03:43:00.661Z,63.41
2023-03-27T03:44:05.302Z,63.28
2023-03-27T03:45:09.353Z,63.24
2023-03-27T03:46:12.776Z,63.16
2023-03-27T03:47:16.300Z,63.15
2023-03-27T03:48:19.818Z,63.12
2023-03-27T03:49:22.164Z,63.02
2023-03-27T03:50:24.794Z,62.65
2023-03-27T03:51:28.750Z,62.48
2023-03-27T03:52:31.080Z,62.45
2023-03-27T03:53:33.527Z,62.29
2023-03-27T03:54:38.864Z,62.17
2023-03-27T03:55:41.310Z,62.23
2023-03-27T03:56:43.798Z,62.09
2023-03-27T03:57:50.424Z,61.83
2023-03-27T03:59:01.088Z,61.74
2023-03-27T04:00:08.829Z,61.67
2023-03-27T04:01:24.570Z,61.54
2023-03-27T04:02:31.644Z,61.50
2023-03-27T04:03:39.862Z,61.31
2023-03-27T04:04:45.411Z,61.37
2023-03-27T04:05:51.159Z,61.39
2023-03-27T04:06:58.393Z,61.33
2023-03-27T04:08:09.876Z,61.57
2023-03-27T04:09:44.426Z,61.44
2023-03-27T04:11:00.939Z,61.55
2023-03-27T04:12:20.143Z,61.66
2023-03-27T04:13:32.370Z,61.71
2023-03-27T04:14:43.011Z,61.80
2023-03-27T04:16:06.815Z,61.91
2023-03-27T04:17:12.035Z,61.82
2023-03-27T04:18:15.425Z,62.04
2023-03-27T04:19:18.497Z,62.05
2023-03-27T04:20:28.142Z,62.11
2023-03-27T04:21:31.717Z,62.12
2023-03-27T04:22:38.323Z,62.07
2023-03-27T04:23:46.101Z,62.15
2023-03-27T04:24:50.885Z,62.22
2023-03-27T04:25:57.601Z,62.03
2023-03-27T04:27:05.841Z,62.19
2023-03-27T04:28:18.544Z,62.12
2023-03-27T04:29:26.801Z,62.38
2023-03-27T04:30:37.150Z,62.39
2023-03-27T04:31:55.528Z,62.40
2023-03-27T04:33:19.368Z,62.28
2023-03-27T04:34:41.532Z,62.21
2023-03-27T04:36:07.942Z,62.03
2023-03-27T04:37:24.190Z,62.08
2023-03-27T04:38:51.315Z,62.19
2023-03-27T04:39:53.951Z,62.20
2023-03-27T04:40:56.633Z,62.19
2023-03-27T04:41:59.405Z,62.22
2023-03-27T04:43:05.976Z,62.19
2023-03-27T04:44:09.991Z,62.07
2023-03-27T04:45:20.786Z,62.08
2023-03-27T04:46:25.670Z,62.19
2023-03-27T04:47:38.214Z,62.20
2023-03-27T04:48:41.393Z,62.30
2023-03-27T04:49:59.518Z,62.15
2023-03-27T04:51:03.373Z,62.22
2023-03-27T04:52:10.272Z,62.11
2023-03-27T04:53:16.780Z,62.18
2023-03-27T04:54:23.744Z,61.95
2023-03-27T04:55:27.163Z,62.13
2023-03-27T04:56:30.978Z,62.05
2023-03-27T04:57:34.630Z,62.08
2023-03-27T04:58:37.715Z,62.21
2023-03-27T04:59:45.870Z,62.13
2023-03-27T05:01:07.048Z,62.13
2023-03-27T05:02:28.436Z,62.03
2023-03-27T05:03:39.300Z,62.18
2023-03-27T05:05:02.380Z,62.02
2023-03-27T05:06:10.636Z,61.97
2023-03-27T05:07:13.201Z,61.97
2023-03-27T05:08:17.503Z,62.09
2023-03-27T05:09:20.700Z,62.06
2023-03-27T05:10:24.268Z,62.03
2023-03-27T05:11:27.728Z,61.93
2023-03-27T05:12:30.965Z,61.83
2023-03-27T05:13:37.200Z,61.85
2023-03-27T05:14:39.767Z,61.77
2023-03-27T05:15:49.364Z,61.83
2023-03-27T05:16:54.629Z,61.90
2023-03-27T05:17:58.884Z,61.99
2023-03-27T05:19:03.672Z,61.98
2023-03-27T05:20:17.279Z,61.96
2023-03-27T05:21:19.888Z,62.05
2023-03-27T05:22:22.427Z,62.14
2023-03-27T05:23:32.392Z,62.03
2023-03-27T05:24:35.262Z,62.01
2023-03-27T05:25:39.603Z,62.04
2023-03-27T05:26:47.106Z,61.86
2023-03-27T05:27:52.967Z,61.85
2023-03-27T05:28:56.085Z,61.78
2023-03-27T05:29:58.804Z,61.89
2023-03-27T05:31:01.576Z,61.93
2023-03-27T05:32:07.457Z,61.88
2023-03-27T05:33:17.808Z,61.85
2023-03-27T05:34:22.463Z,61.76
2023-03-27T05:35:28.787Z,61.81
2023-03-27T05:36:33.271Z,61.91
2023-03-27T05:37:36.634Z,61.97
2023-03-27T05:38:58.265Z,61.89
2023-03-27T05:40:06.695Z,61.75
2023-03-27T05:41:12.597Z,61.94
2023-03-27T05:42:20.437Z,61.87
2023-03-27T05:43:24.277Z,61.90
2023-03-27T05:44:27.688Z,61.88
2023-03-27T05:45:31.159Z,61.88
2023-03-27T05:46:33.527Z,61.93
2023-03-27T05:47:50.193Z,61.89
2023-03-27T05:48:54.498Z,61.92
2023-03-27T05:49:56.935Z,61.94
2023-03-27T05:51:00.194Z,61.72
2023-03-27T05:52:04.492Z,61.80
2023-03-27T05:53:10.352Z,61.82
2023-03-27T05:54:16.793Z,61.79
2023-03-27T05:55:32.202Z,61.80
2023-03-27T05:56:34.662Z,61.75
2023-03-27T05:57:40.552Z,61.89
2023-03-27T05:58:43.447Z,61.98
2023-03-27T05:59:49.084Z,62.02
2023-03-27T06:00:56.972Z,61.94
2023-03-27T06:01:59.525Z,62.04
2023-03-27T06:03:13.440Z,61.90
2023-03-27T06:04:34.415Z,61.84
2023-03-27T06:05:50.461Z,61.78
2023-03-27T06:06:54.440Z,61.79
2023-03-27T06:07:59.315Z,61.60
2023-03-27T06:09:01.741Z,61.58
2023-03-27T06:10:13.663Z,61.53
2023-03-27T06:11:19.178Z,61.52
2023-03-27T06:12:24.189Z,61.47
2023-03-27T06:13:33.257Z,61.27
2023-03-27T06:14:44.304Z,61.32
2023-03-27T06:16:08.227Z,61.21
2023-03-27T06:17:19.483Z,60.97
2023-03-27T06:18:34.480Z,60.88
2023-03-27T06:19:37.236Z,60.79
2023-03-27T06:20:42.929Z,60.51
2023-03-27T06:21:46.409Z,60.55
2023-03-27T06:22:50.383Z,60.36
2023-03-27T06:23:56.481Z,60.21
2023-03-27T06:25:01.480Z,60.06
2023-03-27T06:26:04.040Z,59.91
2023-03-27T06:27:06.509Z,60.10
2023-03-27T06:28:11.363Z,60.03
2023-03-27T06:29:20.020Z,59.89
2023-03-27T06:30:26.106Z,59.81
2023-03-27T06:31:47.027Z,59.90
2023-03-27T06:32:59.582Z,59.68
2023-03-27T06:34:02.799Z,59.68
2023-03-27T06:35:15.457Z,59.63
2023-03-27T06:36:28.000Z,59.76
2023-03-27T06:37:34.122Z,59.78
2023-03-27T06:38:37.528Z,59.71
2023-03-27T06:39:41.171Z,59.75
2023-03-27T06:40:45.503Z,59.86
2023-03-27T06:41:49.030Z,59.59
2023-03-27T06:43:10.819Z,59.35
2023-03-27T06:44:23.289Z,59.20
2023-03-27T06:46:00.820Z,59.23
2023-03-27T06:47:21.539Z,59.15
2023-03-27T06:48:42.958Z,58.95
2023-03-27T06:49:48.024Z,58.73
2023-03-27T06:50:56.398Z,58.29
2023-03-27T06:51:59.716Z,58.10
2023-03-27T06:53:03.053Z,58.14
2023-03-27T06:54:15.603Z,58.01
2023-03-27T06:55:27.817Z,57.92
2023-03-27T06:56:30.514Z,57.83
2023-03-27T06:57:55.372Z,57.63
2023-03-27T06:58:57.645Z,57.42
2023-03-27T07:00:11.804Z,57.43
2023-03-27T07:01:33.272Z,57.35
2023-03-27T07:02:57.529Z,57.35
2023-03-27T07:04:20.401Z,57.44
2023-03-27T07:05:40.986Z,57.48
2023-03-27T07:06:43.538Z,57.43
2023-03-27T07:07:49.417Z,57.48
2023-03-27T07:08:52.506Z,57.13
2023-03-27T07:09:55.004Z,56.88
2023-03-27T07:11:11.248Z,56.84
2023-03-27T07:12:19.861Z,56.54
2023-03-27T07:13:23.468Z,56.28
2023-03-27T07:14:27.191Z,56.12
2023-03-27T07:15:32.253Z,55.88
2023-03-27T07:16:34.805Z,55.62
2023-03-27T07:17:48.088Z,55.02
2023-03-27T07:18:53.474Z,54.80
2023-03-27T07:19:55.934Z,54.50
2023-03-27T07:21:04.652Z,54.17
2023-03-27T07:22:07.175Z,53.85
2023-03-27T07:23:12.060Z,53.46
2023-03-27T07:24:29.045Z,53.54
2023-03-27T07:25:37.946Z,53.37
2023-03-27T07:26:44.141Z,53.31
2023-03-27T07:28:00.116Z,52.87
2023-03-27T07:29:03.293Z,53.20
2023-03-27T07:30:08.277Z,53.03
2023-03-27T07:31:32.612Z,52.87
2023-03-27T07:32:37.933Z,53.03
2023-03-27T07:33:41.858Z,52.82
2023-03-27T07:34:44.576Z,52.62
2023-03-27T07:35:48.825Z,52.65
2023-03-27T07:37:27.550Z,52.63
2023-03-27T07:38:48.483Z,52.16
2023-03-27T07:40:00.212Z,52.23
2023-03-27T07:41:06.943Z,52.23
2023-03-27T07:42:29.234Z,52.29
2023-03-27T07:43:36.040Z,52.23
2023-03-27T07:44:38.822Z,51.94
2023-03-27T07:45:44.002Z,51.89
2023-03-27T07:46:47.076Z,51.74
2023-03-27T07:47:51.645Z,51.63
2023-03-27T07:48:55.383Z,51.69
2023-03-27T07:49:59.990Z,51.60
2023-03-27T07:51:13.427Z,51.68
2023-03-27T07:52:17.404Z,51.16
2023-03-27T07:53:40.704Z,50.88
2023-03-27T07:54:57.169Z,50.70
2023-03-27T07:56:05.723Z,50.29
2023-03-27T07:57:08.254Z,50.17
2023-03-27T07:58:30.779Z,50.06
2023-03-27T07:59:33.608Z,50.15
2023-03-27T08:00:44.423Z,50.21
2023-03-27T08:01:50.979Z,50.23
2023-03-27T08:03:06.259Z,49.23
2023-03-27T08:04:08.949Z,48.76
2023-03-27T08:05:14.506Z,48.10
2023-03-27T08:06:20.546Z,48.25
2023-03-27T08:07:23.038Z,47.64
2023-03-27T08:08:26.871Z,47.25
2023-03-27T08:09:33.265Z,47.34
2023-03-27T08:10:36.588Z,47.46
2023-03-27T08:11:39.810Z,47.10
2023-03-27T08:12:42.436Z,47.20
2023-03-27T08:13:45.147Z,47.13
2023-03-27T08:14:48.629Z,46.98
2023-03-27T08:16:18.661Z,46.84
2023-03-27T08:17:22.266Z,46.81
2023-03-27T08:18:24.860Z,45.90
2023-03-27T08:19:27.701Z,45.55
2023-03-27T08:20:34.955Z,45.32
2023-03-27T08:21:37.659Z,45.65
2023-03-27T08:22:39.987Z,45.38
2023-03-27T08:24:04.916Z,45.01
2023-03-27T08:25:11.011Z,44.89
2023-03-27T08:26:14.784Z,44.60
2023-03-27T08:27:23.949Z,44.88
2023-03-27T08:28:38.656Z,44.85
2023-03-27T08:29:43.021Z,44.79
2023-03-27T08:30:46.529Z,44.45
2023-03-27T08:31:49.604Z,44.77
2023-03-27T08:32:52.116Z,44.95
2023-03-27T08:33:55.857Z,44.90
2023-03-27T08:35:01.288Z,45.17
2023-03-27T08:36:05.720Z,45.26
2023-03-27T08:37:09.216Z,45.44
2023-03-27T08:38:26.742Z,45.78
2023-03-27T08:39:41.438Z,46.13
2023-03-27T08:41:04.003Z,46.64
2023-03-27T08:42:22.553Z,46.43
2023-03-27T08:43:39.558Z,46.36
2023-03-27T08:44:42.655Z,45.92
2023-03-27T08:45:57.021Z,45.81
2023-03-27T08:47:38.005Z,45.70
2023-03-27T08:48:58.806Z,45.25
2023-03-27T08:50:06.531Z,44.79
2023-03-27T08:51:33.549Z,45.02
2023-03-27T08:52:42.616Z,45.13
2023-03-27T08:54:21.816Z,45.88
2023-03-27T08:55:34.660Z,45.84
2023-03-27T08:56:49.347Z,45.59
2023-03-27T08:57:53.199Z,45.33
2023-03-27T08:58:59.176Z,45.22
2023-03-27T09:00:09.816Z,44.91
2023-03-27T09:01:29.627Z,44.53
2023-03-27T09:02:34.773Z,44.41
2023-03-27T09:04:00.081Z,44.46
2023-03-27T09:05:35.545Z,44.05
2023-03-27T09:06:48.436Z,44.18
2023-03-27T09:08:10.668Z,44.57
2023-03-27T09:09:31.438Z,44.39
2023-03-27T09:10:44.711Z,44.48
2023-03-27T09:12:26.124Z,44.53
2023-03-27T09:13:42.877Z,44.53
2023-03-27T09:14:54.813Z,44.60
2023-03-27T09:16:11.303Z,44.70
2023-03-27T09:17:23.757Z,44.22
2023-03-27T09:18:51.671Z,44.53
2023-03-27T09:20:07.648Z,44.00
2023-03-27T09:21:42.412Z,44.20
2023-03-27T09:22:54.113Z,43.82
2023-03-27T09:24:36.862Z,44.05
2023-03-27T09:26:13.859Z,44.16
2023-03-27T09:27:38.950Z,44.25
2023-03-27T09:29:14.705Z,44.12
2023-03-27T09:30:29.612Z,43.79
2023-03-27T09:31:44.270Z,43.39
2023-03-27T09:32:50.104Z,43.02
2023-03-27T09:33:53.106Z,42.71
2023-03-27T09:34:55.705Z,42.43
2023-03-27T09:35:59.583Z,42.35
2023-03-27T09:37:02.896Z,42.50
2023-03-27T09:38:36.605Z,42.92
2023-03-27T09:39:54.895Z,43.20
2023-03-27T09:41:10.879Z,42.61
2023-03-27T09:42:44.324Z,41.89
2023-03-27T09:44:03.853Z,41.89
2023-03-27T09:45:12.908Z,41.30
2023-03-27T09:46:39.332Z,41.08
2023-03-27T09:48:00.606Z,41.63
2023-03-27T09:49:19.666Z,41.70
2023-03-27T09:50:35.191Z,42.17
2023-03-27T09:51:47.807Z,42.66
2023-03-27T09:53:16.384Z,43.35
2023-03-27T09:54:52.183Z,43.42
2023-03-27T09:56:05.671Z,43.54
2023-03-27T09:57:12.815Z,43.66
2023-03-27T09:58:28.000Z,43.66
2023-03-27T09:59:31.132Z,43.38
2023-03-27T10:00:41.741Z,42.68
2023-03-27T10:01:48.409Z,41.96
2023-03-27T10:03:00.644Z,40.85
2023-03-27T10:04:13.543Z,40.34
2023-03-27T10:05:24.234Z,40.01
2023-03-27T10:06:38.010Z,39.71
2023-03-27T10:07:51.630Z,39.93
2023-03-27T10:09:23.082Z,40.19
2023-03-27T10:10:32.630Z,39.19
2023-03-27T10:12:04.783Z,39.33
2023-03-27T10:13:14.332Z,39.63
2023-03-27T10:14:26.454Z,39.06
2023-03-27T10:15:38.876Z,38.26
2023-03-27T10:16:43.472Z,37.84
2023-03-27T10:17:48.782Z,38.24
2023-03-27T10:18:55.390Z,38.10
2023-03-27T10:20:09.287Z,38.13
2023-03-27T10:21:33.477Z,38.66
2023-03-27T10:22:54.581Z,38.95
2023-03-27T10:24:28.074Z,39.41
2023-03-27T10:26:04.666Z,38.92
2023-03-27T10:27:22.291Z,38.63
2023-03-27T10:28:49.255Z,38.92
2023-03-27T10:29:59.639Z,38.03
2023-03-27T10:31:25.645Z,38.35
2023-03-27T10:32:46.882Z,38.05
2023-03-27T10:34:33.589Z,38.08
2023-03-27T10:36:14.593Z,37.65
2023-03-27T10:37:28.215Z,37.25
2023-03-27T10:39:07.464Z,37.56
2023-03-27T10:40:31.050Z,37.79
2023-03-27T10:41:39.703Z,37.43
2023-03-27T10:42:44.211Z,36.97
2023-03-27T10:43:49.474Z,37.14
2023-03-27T10:44:58.074Z,36.83
2023-03-27T10:46:10.007Z,36.81
2023-03-27T10:47:23.024Z,37.09
2023-03-27T10:48:32.916Z,37.21
2023-03-27T10:49:49.824Z,37.52
2023-03-27T10:51:06.621Z,37.41
2023-03-27T10:52:57.402Z,38.03
2023-03-27T10:54:27.053Z,38.67
2023-03-27T10:55:57.819Z,39.15
2023-03-27T10:57:28.835Z,39.17
2023-03-27T10:58:37.728Z,39.21
2023-03-27T10:59:51.333Z,38.82
2023-03-27T11:01:12.029Z,38.96
2023-03-27T11:02:37.156Z,38.98
2023-03-27T11:03:51.854Z,38.90
2023-03-27T11:05:10.177Z,38.91
2023-03-27T11:06:16.753Z,38.66
2023-03-27T11:07:38.005Z,38.37
2023-03-27T11:08:49.757Z,37.93
2023-03-27T11:09:59.560Z,38.28
2023-03-27T11:11:22.644Z,37.93
2023-03-27T11:12:33.020Z,37.51
2023-03-27T11:13:48.098Z,37.85
2023-03-27T11:15:10.770Z,37.44
2023-03-27T11:16:37.518Z,37.47
2023-03-27T11:17:54.848Z,37.22
2023-03-27T11:19:33.354Z,37.45
2023-03-27T11:21:16.321Z,36.80
2023-03-27T11:22:35.410Z,36.68
2023-03-27T11:23:56.658Z,36.72
2023-03-27T11:25:27.350Z,36.29
2023-03-27T11:26:47.900Z,36.64
2023-03-27T11:28:39.866Z,36.88
2023-03-27T11:29:57.453Z,36.50
2023-03-27T11:31:12.797Z,36.33
2023-03-27T11:32:27.460Z,36.33
2023-03-27T11:33:52.604Z,36.41
2023-03-27T11:35:04.300Z,37.09
2023-03-27T11:36:31.848Z,37.33
2023-03-27T11:37:48.254Z,37.26
2023-03-27T11:39:07.408Z,37.54
2023-03-27T11:40:17.499Z,37.13
2023-03-27T11:41:21.091Z,37.16
2023-03-27T11:42:37.051Z,37.17
2023-03-27T11:43:43.600Z,37.21
2023-03-27T11:45:10.039Z,37.23
2023-03-27T11:46:22.238Z,37.29
2023-03-27T11:47:49.574Z,37.52
2023-03-27T11:49:15.308Z,37.44
2023-03-27T11:50:24.543Z,37.74
2023-03-27T11:51:57.964Z,37.81
2023-03-27T11:53:45.144Z,38.22
2023-03-27T11:55:06.723Z,38.22
2023-03-27T11:56:44.661Z,38.38
2023-03-27T11:58:07.698Z,38.37
2023-03-27T12:00:01.406Z,38.12
2023-03-27T12:01:10.146Z,37.53
2023-03-27T12:02:37.092Z,37.77
2023-03-27T12:04:01.338Z,37.76
2023-03-27T12:05:53.055Z,37.96
2023-03-27T12:07:21.059Z,37.75
2023-03-27T12:08:51.778Z,37.89
2023-03-27T12:10:18.548Z,37.75
2023-03-27T12:11:42.692Z,37.71
2023-03-27T12:13:06.923Z,37.95
2023-03-27T12:14:28.123Z,37.27
2023-03-27T12:16:13.111Z,37.74
2023-03-27T12:17:32.939Z,37.54
2023-03-27T12:19:28.550Z,38.16
2023-03-27T12:21:17.876Z,38.41
2023-03-27T12:22:37.114Z,38.41
2023-03-27T12:24:11.243Z,38.54
2023-03-27T12:26:01.355Z,38.50
2023-03-27T12:27:45.124Z,38.87
2023-03-27T12:29:24.436Z,39.20
2023-03-27T12:30:55.765Z,39.36
2023-03-27T12:32:22.603Z,39.20
2023-03-27T12:33:53.357Z,39.49
2023-03-27T12:35:04.416Z,39.63
2023-03-27T12:36:22.469Z,39.71
2023-03-27T12:37:42.350Z,39.72
2023-03-27T12:38:45.659Z,39.35
2023-03-27T12:39:55.082Z,39.36
2023-03-27T12:41:07.023Z,39.56
2023-03-27T12:42:54.645Z,39.62
2023-03-27T12:44:00.931Z,39.53
2023-03-27T12:45:27.121Z,39.21
2023-03-27T12:46:36.661Z,38.58
2023-03-27T12:47:39.188Z,38.43
2023-03-27T12:48:54.760Z,38.43
2023-03-27T12:50:00.028Z,38.71
2023-03-27T12:51:14.362Z,38.70
2023-03-27T12:52:19.513Z,38.67
2023-03-27T12:53:46.808Z,38.72
2023-03-27T12:55:18.678Z,38.86
2023-03-27T12:56:36.303Z,38.04
2023-03-27T12:57:44.324Z,38.22
2023-03-27T12:58:54.898Z,37.87
2023-03-27T13:00:10.617Z,37.31
2023-03-27T13:01:25.218Z,36.96
2023-03-27T13:02:53.812Z,37.09
2023-03-27T13:04:17.143Z,37.23
2023-03-27T13:05:41.049Z,37.25
2023-03-27T13:07:20.751Z,37.48
2023-03-27T13:09:10.671Z,37.31
2023-03-27T13:10:40.836Z,37.87
2023-03-27T13:11:58.732Z,38.24
2023-03-27T13:13:26.345Z,38.43
2023-03-27T13:14:56.777Z,38.96
2023-03-27T13:16:17.730Z,38.95
2023-03-27T13:17:42.791Z,39.47
2023-03-27T13:19:23.195Z,39.61
2023-03-27T13:21:16.697Z,39.90
2023-03-27T13:22:47.613Z,39.90
2023-03-27T13:24:14.108Z,39.30
2023-03-27T13:25:40.896Z,38.33
2023-03-27T13:27:06.941Z,38.49
2023-03-27T13:28:31.530Z,38.09
2023-03-27T13:29:41.781Z,38.09
2023-03-27T13:30:56.133Z,38.17
2023-03-27T13:32:39.249Z,38.52
2023-03-27T13:34:14.063Z,39.04
2023-03-27T13:35:23.259Z,39.17
2023-03-27T13:36:26.733Z,39.36
2023-03-27T13:37:36.627Z,39.35
2023-03-27T13:39:07.422Z,39.72
2023-03-27T13:40:20.756Z,39.64
2023-03-27T13:41:47.446Z,39.59
2023-03-27T13:43:22.935Z,39.53
2023-03-27T13:44:48.088Z,39.53
2023-03-27T13:45:55.078Z,39.74
2023-03-27T13:47:35.119Z,40.48
2023-03-27T13:48:50.477Z,41.03
2023-03-27T13:50:28.292Z,41.55
2023-03-27T13:51:53.539Z,41.98
2023-03-27T13:53:23.908Z,42.49
2023-03-27T13:55:21.559Z,42.79
2023-03-27T13:56:55.901Z,43.32
2023-03-27T13:58:26.016Z,43.51
2023-03-27T13:59:41.019Z,44.03
2023-03-27T14:01:07.950Z,44.41
2023-03-27T14:02:19.158Z,44.77
2023-03-27T14:03:45.430Z,44.43
2023-03-27T14:04:58.065Z,43.99
2023-03-27T14:06:08.914Z,43.89
2023-03-27T14:07:39.724Z,44.10
2023-03-27T14:09:08.302Z,44.41
2023-03-27T14:10:40.688Z,44.48
2023-03-27T14:12:21.095Z,44.70
2023-03-27T14:14:04.213Z,44.94
2023-03-27T14:15:15.628Z,45.30
2023-03-27T14:17:00.481Z,45.31
2023-03-27T14:18:23.528Z,45.48
2023-03-27T14:20:16.484Z,45.35
2023-03-27T14:21:35.550Z,45.71
2023-03-27T14:22:53.783Z,45.69
2023-03-27T14:24:08.950Z,46.20
2023-03-27T14:25:26.483Z,47.00
2023-03-27T14:26:35.195Z,47.19
2023-03-27T14:27:41.116Z,47.89
2023-03-27T14:28:59.131Z,47.94
2023-03-27T14:30:14.706Z,48.51
2023-03-27T14:31:21.636Z,48.90
2023-03-27T14:32:33.176Z,49.05
2023-03-27T14:33:39.318Z,49.29
2023-03-27T14:36:16.817Z,49.68
2023-03-27T14:37:36.304Z,49.99
2023-03-27T14:38:44.617Z,50.05
2023-03-27T14:39:54.314Z,50.37
2023-03-27T14:41:00.856Z,50.32
2023-03-27T14:42:32.558Z,50.31
2023-03-27T14:43:35.748Z,50.48
2023-03-27T14:44:38.220Z,50.75
2023-03-27T14:45:51.850Z,50.93
2023-03-27T14:47:00.972Z,50.69
2023-03-27T14:48:08.099Z,50.68
2023-03-27T14:49:24.842Z,50.64
2023-03-27T14:50:34.626Z,50.69
2023-03-27T14:51:42.226Z,50.58
2023-03-27T14:52:53.773Z,50.54
2023-03-27T14:54:02.602Z,50.46
2023-03-27T14:55:18.897Z,50.35
2023-03-27T14:56:37.521Z,50.35
2023-03-27T14:57:45.549Z,50.43
2023-03-27T14:58:50.883Z,50.30
2023-03-27T14:59:55.548Z,50.25
2023-03-27T15:01:00.204Z,50.63
2023-03-27T15:02:30.847Z,50.73
2023-03-27T15:03:38.079Z,51.08
2023-03-27T15:04:41.898Z,51.54
2023-03-27T15:06:01.226Z,51.29
2023-03-27T15:07:19.509Z,51.50
2023-03-27T15:08:42.035Z,51.34
2023-03-27T15:10:06.754Z,51.34
2023-03-27T15:11:39.192Z,51.30
2023-03-27T15:12:50.646Z,51.21
2023-03-27T15:13:53.057Z,51.31
2023-03-27T15:15:04.028Z,51.23
2023-03-27T15:16:08.348Z,51.33
2023-03-27T15:17:16.130Z,51.32
2023-03-27T15:18:39.657Z,51.16
2023-03-27T15:19:49.174Z,51.10
2023-03-27T15:20:54.260Z,50.96
2023-03-27T15:22:27.599Z,50.70
2023-03-27T15:23:33.901Z,50.83
2023-03-27T15:24:56.328Z,50.88
2023-03-27T15:26:04.925Z,51.05
2023-03-27T15:27:19.163Z,51.35
2023-03-27T15:28:29.093Z,51.17
2023-03-27T15:29:53.746Z,51.08
2023-03-27T15:30:59.347Z,51.08
2023-03-27T15:32:09.023Z,51.12
2023-03-27T15:33:22.256Z,50.93
2023-03-27T15:34:49.127Z,50.80
2023-03-27T15:35:57.231Z,50.72
2023-03-27T15:37:04.019Z,50.78
2023-03-27T15:38:11.012Z,50.98
2023-03-27T15:39:23.293Z,50.66
2023-03-27T15:40:53.146Z,50.79
2023-03-27T15:42:13.606Z,50.88
2023-03-27T15:43:24.909Z,50.88
2023-03-27T15:44:32.117Z,50.87
2023-03-27T15:45:53.295Z,50.86
2023-03-27T15:46:58.099Z,51.02
2023-03-27T15:48:06.056Z,50.81
2023-03-27T15:49:42.121Z,50.63
2023-03-27T15:51:03.080Z,50.48
2023-03-27T15:52:29.899Z,50.51
2023-03-27T15:53:38.521Z,50.17